createdAt,value
2023-05-21T00:01:16.408Z,0.80
2023-05-21T00:03:45.802Z,1.38
2023-05-21T00:06:16.305Z,0.98
2023-05-21T00:08:43.219Z,1.63
2023-05-21T00:11:10.021Z,1.10
2023-05-21T00:13:36.817Z,1.63
2023-05-21T00:16:03.643Z,0.88
2023-05-21T00:18:32.304Z,1.08
2023-05-21T00:20:59.311Z,0.82
2023-05-21T00:23:26.807Z,0.90
2023-05-21T00:25:53.730Z,1.00
2023-05-21T00:28:20.559Z,1.00
2023-05-21T00:30:47.304Z,0.65
2023-05-21T00:33:14.703Z,0.90
2023-05-21T00:35:41.717Z,1.33
2023-05-21T00:38:08.669Z,0.70
2023-05-21T00:40:36.296Z,0.93
2023-05-21T00:43:03.332Z,2.00
2023-05-21T00:45:30.191Z,0.90
2023-05-21T00:47:57.182Z,1.30
2023-05-21T00:50:24.225Z,0.80
2023-05-21T00:52:51.651Z,0.95
2023-05-21T00:55:18.556Z,0.85
2023-05-21T00:57:46.042Z,1.23
2023-05-21T01:00:14.599Z,1.00
2023-05-21T01:02:42.089Z,1.05
2023-05-21T01:05:10.433Z,0.90
2023-05-21T01:07:41.381Z,0.80
2023-05-21T01:10:10.641Z,1.40
2023-05-21T01:12:39.666Z,1.27
2023-05-21T01:15:07.278Z,1.08
2023-05-21T01:17:34.554Z,0.93
2023-05-21T01:20:02.167Z,0.95
2023-05-21T01:22:32.330Z,0.90
2023-05-21T01:25:02.528Z,1.33
2023-05-21T01:27:29.282Z,0.60
2023-05-21T01:29:56.586Z,0.90
2023-05-21T01:32:40.701Z,1.23
2023-05-21T01:35:09.773Z,0.77
2023-05-21T01:37:55.726Z,0.77
2023-05-21T01:40:25.869Z,1.20
2023-05-21T01:42:53.187Z,0.80
2023-05-21T01:45:22.477Z,1.02
2023-05-21T01:47:51.654Z,1.15
2023-05-21T01:50:19.480Z,0.80
2023-05-21T01:52:51.778Z,2.15
2023-05-21T01:55:19.536Z,1.08
2023-05-21T01:57:46.763Z,1.42
2023-05-21T02:00:14.150Z,0.82
2023-05-21T02:02:43.875Z,1.27
2023-05-21T02:05:11.285Z,0.60
2023-05-21T02:07:38.603Z,0.82
2023-05-21T02:10:06.415Z,1.25
2023-05-21T02:12:33.550Z,1.58
2023-05-21T02:15:00.825Z,0.90
2023-05-21T02:17:31.039Z,1.00
2023-05-21T02:19:57.933Z,0.88
2023-05-21T02:22:24.715Z,1.20
2023-05-21T02:24:51.490Z,0.82
2023-05-21T02:27:18.280Z,0.80
2023-05-21T02:29:45.011Z,1.10
2023-05-21T02:32:11.771Z,1.10
2023-05-21T02:34:42.228Z,1.02
2023-05-21T02:37:09.704Z,0.70
2023-05-21T02:39:36.550Z,0.98
2023-05-21T02:42:03.392Z,1.33
2023-05-21T02:44:30.594Z,0.85
2023-05-21T02:46:57.445Z,1.35
2023-05-21T02:49:24.235Z,0.98
2023-05-21T02:51:51.092Z,1.48
2023-05-21T02:54:17.929Z,1.52
2023-05-21T02:56:44.783Z,0.95
2023-05-21T02:59:11.502Z,1.27
2023-05-21T03:01:41.244Z,1.13
2023-05-21T03:04:08.502Z,0.90
2023-05-21T03:06:35.492Z,0.93
2023-05-21T03:09:05.675Z,0.98
2023-05-21T03:11:32.498Z,0.75
2023-05-21T03:13:59.212Z,0.73
2023-05-21T03:16:26.048Z,1.20
2023-05-21T03:18:53.066Z,0.98
2023-05-21T03:21:22.652Z,1.58
2023-05-21T03:23:49.764Z,0.73
2023-05-21T03:26:16.751Z,1.48
2023-05-21T03:28:43.785Z,1.55
2023-05-21T03:31:10.684Z,1.15
2023-05-21T03:33:48.296Z,0.50
2023-05-21T03:36:24.506Z,1.00
2023-05-21T03:38:52.506Z,1.02
2023-05-21T03:41:19.596Z,0.95
2023-05-21T03:43:50.706Z,1.33
2023-05-21T03:46:19.139Z,1.10
2023-05-21T03:49:05.888Z,1.85
2023-05-21T03:51:34.861Z,0.90
2023-05-21T03:54:01.794Z,1.33
2023-05-21T03:56:28.779Z,1.35
2023-05-21T03:58:55.623Z,0.80
2023-05-21T04:01:22.708Z,0.98
2023-05-21T04:03:51.825Z,0.93
2023-05-21T04:06:21.840Z,1.20
2023-05-21T04:08:48.595Z,0.70
2023-05-21T04:11:15.389Z,1.15
2023-05-21T04:13:42.240Z,1.13
2023-05-21T04:16:09.525Z,0.98
2023-05-21T04:18:36.503Z,1.55
2023-05-21T04:21:03.836Z,0.93
2023-05-21T04:23:30.623Z,1.13
2023-05-21T04:25:58.519Z,1.27
2023-05-21T04:28:28.639Z,0.85
2023-05-21T04:30:56.502Z,0.98
2023-05-21T04:33:24.486Z,0.65
2023-05-21T04:35:51.810Z,1.17
2023-05-21T04:38:19.711Z,0.90
2023-05-21T04:40:53.458Z,1.30
2023-05-21T04:43:26.236Z,0.88
2023-05-21T04:45:58.500Z,0.90
2023-05-21T04:48:27.097Z,1.10
2023-05-21T04:50:55.766Z,1.00
2023-05-21T04:53:23.541Z,0.88
2023-05-21T04:55:50.794Z,1.00
2023-05-21T04:58:18.336Z,1.17
2023-05-21T05:00:46.900Z,1.00
2023-05-21T05:03:14.547Z,0.90
2023-05-21T05:05:43.480Z,1.00
2023-05-21T05:08:11.172Z,1.02
2023-05-21T05:10:38.569Z,0.93
2023-05-21T05:13:05.488Z,0.90
2023-05-21T05:15:32.310Z,1.10
2023-05-21T05:17:59.403Z,0.88
2023-05-21T05:20:26.275Z,1.10
2023-05-21T05:22:53.063Z,0.90
2023-05-21T05:25:19.972Z,1.13
2023-05-21T05:27:47.298Z,1.42
2023-05-21T05:30:14.189Z,0.80
2023-05-21T05:32:41.036Z,1.25
2023-05-21T05:35:08.725Z,1.27
2023-05-21T05:37:35.784Z,1.10
2023-05-21T05:40:02.579Z,1.10
2023-05-21T05:42:29.540Z,1.20
2023-05-21T05:44:58.108Z,1.30
2023-05-21T05:47:25.000Z,1.73
2023-05-21T05:49:51.935Z,1.52
2023-05-21T05:52:19.738Z,1.40
2023-05-21T05:54:47.017Z,2.00
2023-05-21T05:57:14.014Z,1.02
2023-05-21T05:59:40.803Z,1.33
2023-05-21T06:02:07.740Z,1.75
2023-05-21T06:04:34.558Z,2.28
2023-05-21T06:07:01.545Z,1.60
2023-05-21T06:09:28.342Z,1.50
2023-05-21T06:11:55.964Z,1.40
2023-05-21T06:14:22.896Z,1.60
2023-05-21T06:16:49.725Z,1.05
2023-05-21T06:19:16.832Z,0.95
2023-05-21T06:21:43.702Z,1.50
2023-05-21T06:24:10.515Z,1.35
2023-05-21T06:26:38.183Z,0.98
2023-05-21T06:29:05.706Z,0.93
2023-05-21T06:31:33.199Z,0.80
2023-05-21T06:34:00.992Z,1.20
2023-05-21T06:36:29.991Z,0.93
2023-05-21T06:38:57.502Z,1.10
2023-05-21T06:41:24.777Z,1.13
2023-05-21T06:43:55.798Z,1.25
2023-05-21T06:46:40.965Z,1.00
2023-05-21T06:49:08.974Z,1.23
2023-05-21T06:51:35.843Z,0.80
2023-05-21T06:54:04.321Z,0.90
2023-05-21T06:56:31.760Z,1.13
2023-05-21T06:58:59.306Z,1.33
2023-05-21T07:01:26.289Z,0.77
2023-05-21T07:03:54.323Z,1.00
2023-05-21T07:06:21.163Z,1.08
2023-05-21T07:08:49.898Z,0.80
2023-05-21T07:11:17.039Z,1.30
2023-05-21T07:13:44.141Z,1.10
2023-05-21T07:16:12.128Z,1.50
2023-05-21T07:18:40.983Z,1.08
2023-05-21T07:21:08.588Z,0.88
2023-05-21T07:23:37.450Z,1.17
2023-05-21T07:26:04.721Z,1.35
2023-05-21T07:28:32.032Z,0.98
2023-05-21T07:31:01.040Z,1.15
2023-05-21T07:36:01.537Z,1.00
2023-05-21T07:38:29.097Z,1.35
2023-05-21T07:40:56.928Z,0.93
2023-05-21T07:43:24.340Z,1.65
2023-05-21T07:45:51.392Z,0.90
2023-05-21T07:48:19.673Z,1.05
2023-05-21T07:50:54.700Z,1.50
2023-05-21T07:53:24.627Z,1.00
2023-05-21T07:55:52.007Z,1.00
2023-05-21T07:58:24.107Z,0.77
2023-05-21T08:00:51.353Z,0.90
2023-05-21T08:03:19.058Z,1.38
2023-05-21T08:05:50.798Z,0.85
2023-05-21T08:08:19.455Z,1.30
2023-05-21T08:10:47.893Z,1.35
2023-05-21T08:13:16.689Z,1.10
2023-05-21T08:15:44.149Z,1.15
2023-05-21T08:18:12.410Z,0.90
2023-05-21T08:20:41.501Z,1.02
2023-05-21T08:23:09.157Z,1.38
2023-05-21T08:25:41.417Z,1.30
2023-05-21T08:28:09.406Z,1.55
2023-05-21T08:30:36.688Z,1.40
2023-05-21T08:33:03.559Z,1.05
2023-05-21T08:35:33.220Z,1.20
2023-05-21T08:38:16.985Z,0.93
2023-05-21T08:41:07.862Z,1.20
2023-05-21T08:43:37.145Z,1.27
2023-05-21T08:46:04.637Z,1.15
2023-05-21T08:48:36.536Z,0.93
2023-05-21T08:51:04.193Z,1.10
2023-05-21T08:53:34.710Z,1.13
2023-05-21T08:56:03.259Z,0.85
2023-05-21T08:58:45.445Z,1.23
2023-05-21T09:01:13.142Z,1.25
2023-05-21T09:03:44.084Z,1.17
2023-05-21T09:06:13.970Z,0.70
2023-05-21T09:08:47.988Z,1.10
2023-05-21T09:11:29.593Z,1.23
2023-05-21T09:14:01.087Z,1.20
2023-05-21T09:16:42.481Z,1.70
2023-05-21T09:19:09.317Z,0.88
2023-05-21T09:21:36.817Z,1.60
2023-05-21T09:24:14.250Z,1.80
2023-05-21T09:26:45.505Z,1.00
2023-05-21T09:29:13.467Z,1.67
2023-05-21T09:31:44.997Z,1.17
2023-05-21T09:34:14.151Z,1.17
2023-05-21T09:36:43.794Z,1.30
2023-05-21T09:39:16.124Z,1.15
2023-05-21T09:41:43.528Z,0.95
2023-05-21T09:44:10.815Z,1.33
2023-05-21T09:46:39.759Z,1.23
2023-05-21T09:49:07.582Z,1.38
2023-05-21T09:51:38.250Z,0.95
2023-05-21T09:54:04.974Z,1.20
2023-05-21T09:56:32.078Z,1.50
2023-05-21T09:59:01.910Z,1.60
2023-05-21T10:01:31.456Z,1.15
2023-05-21T10:04:00.152Z,1.08
2023-05-21T10:06:29.028Z,1.10
2023-05-21T10:08:57.483Z,1.13
2023-05-21T10:11:27.212Z,1.48
2023-05-21T10:14:20.442Z,1.38
2023-05-21T10:16:48.085Z,1.38
2023-05-21T10:19:16.074Z,1.52
2023-05-21T10:21:43.734Z,1.30
2023-05-21T10:24:11.245Z,1.40
2023-05-21T10:26:39.541Z,1.58
2023-05-21T10:29:07.849Z,1.00
2023-05-21T10:31:35.996Z,1.45
2023-05-21T10:34:06.315Z,1.60
2023-05-21T10:36:34.253Z,1.30
2023-05-21T10:39:02.632Z,1.23
2023-05-21T10:41:37.830Z,1.13
2023-05-21T10:44:16.481Z,1.10
2023-05-21T10:47:02.453Z,1.10
2023-05-21T10:49:35.061Z,1.20
2023-05-21T10:52:25.383Z,1.13
2023-05-21T10:55:16.752Z,1.35
2023-05-21T10:58:13.423Z,1.35
2023-05-21T11:00:42.680Z,1.48
2023-05-21T11:03:13.026Z,1.40
2023-05-21T11:05:54.392Z,1.80
2023-05-21T11:08:33.618Z,1.15
2023-05-21T11:11:00.563Z,2.15
2023-05-21T11:13:31.242Z,1.48
2023-05-21T11:15:58.108Z,1.88
2023-05-21T11:18:40.166Z,0.98
2023-05-21T11:21:14.678Z,1.98
2023-05-21T11:24:01.769Z,1.50
2023-05-21T11:26:50.449Z,1.60
2023-05-21T11:29:17.816Z,1.58
2023-05-21T11:32:01.255Z,0.90
2023-05-21T11:34:45.783Z,1.40
2023-05-21T11:37:20.686Z,1.27
2023-05-21T11:39:48.711Z,1.60
2023-05-21T11:42:33.536Z,1.40
2023-05-21T11:45:02.148Z,1.25
2023-05-21T11:47:29.770Z,1.15
2023-05-21T11:49:59.822Z,1.27
2023-05-21T11:52:29.122Z,1.38
2023-05-21T11:54:56.926Z,1.50
2023-05-21T11:57:31.954Z,1.35
2023-05-21T12:00:11.035Z,1.85
2023-05-21T12:02:51.488Z,1.70
2023-05-21T12:05:18.415Z,1.40
2023-05-21T12:07:50.363Z,1.55
2023-05-21T12:10:20.863Z,1.55
2023-05-21T12:12:55.850Z,2.13
2023-05-21T12:15:25.016Z,1.50
2023-05-21T12:17:53.266Z,1.20
2023-05-21T12:20:20.911Z,1.48
2023-05-21T12:22:50.095Z,1.48
2023-05-21T12:25:23.236Z,1.75
2023-05-21T12:27:57.676Z,1.65
2023-05-21T12:30:25.782Z,1.50
2023-05-21T12:32:52.998Z,1.80
2023-05-21T12:35:24.411Z,1.30
2023-05-21T12:37:51.924Z,1.70
2023-05-21T12:40:19.850Z,1.33
2023-05-21T12:42:47.056Z,1.65
2023-05-21T12:45:14.261Z,1.65
2023-05-21T12:47:41.502Z,1.70
2023-05-21T12:50:11.854Z,1.42
2023-05-21T12:52:40.954Z,1.45
2023-05-21T12:55:10.483Z,1.42
2023-05-21T12:57:38.888Z,1.38
2023-05-21T13:00:07.433Z,1.60
2023-05-21T13:02:42.389Z,1.52
2023-05-21T13:05:11.474Z,1.20
2023-05-21T13:07:39.559Z,1.98
2023-05-21T13:10:07.681Z,1.17
2023-05-21T13:12:34.761Z,1.60
2023-05-21T13:15:03.609Z,2.28
2023-05-21T13:17:30.866Z,1.25
2023-05-21T13:20:13.616Z,1.40
2023-05-21T13:22:46.710Z,1.25
2023-05-21T13:25:23.365Z,1.73
2023-05-21T13:27:52.249Z,1.45
2023-05-21T13:30:19.964Z,1.17
2023-05-21T13:32:47.358Z,1.35
2023-05-21T13:35:16.439Z,2.00
2023-05-21T13:37:43.713Z,1.10
2023-05-21T13:40:11.842Z,1.33
2023-05-21T13:42:38.933Z,1.38
2023-05-21T13:45:10.923Z,2.03
2023-05-21T13:47:40.466Z,1.45
2023-05-21T13:50:09.102Z,1.63
2023-05-21T13:52:36.420Z,2.13
2023-05-21T13:55:03.804Z,1.23
2023-05-21T13:57:31.111Z,1.77
2023-05-21T13:59:59.300Z,1.08
2023-05-21T14:02:26.519Z,1.83
2023-05-21T14:04:53.818Z,1.27
2023-05-21T14:07:21.521Z,1.00
2023-05-21T14:09:48.621Z,1.52
2023-05-21T14:12:15.824Z,1.70
2023-05-21T14:14:42.698Z,1.90
2023-05-21T14:17:09.703Z,1.65
2023-05-21T14:19:36.569Z,1.30
2023-05-21T14:22:03.459Z,1.00
2023-05-21T14:24:30.565Z,0.90
2023-05-21T14:26:57.382Z,1.52
2023-05-21T14:29:24.339Z,1.38
2023-05-21T14:31:51.213Z,1.40
2023-05-21T14:34:18.114Z,1.48
2023-05-21T14:36:44.916Z,1.35
2023-05-21T14:39:11.730Z,1.25
2023-05-21T14:41:39.843Z,1.60
2023-05-21T14:44:06.677Z,1.40
2023-05-21T14:46:33.817Z,1.40
2023-05-21T14:49:00.857Z,1.00
2023-05-21T14:51:27.724Z,0.80
2023-05-21T14:53:55.648Z,1.42
2023-05-21T14:56:23.430Z,1.75
2023-05-21T14:58:50.250Z,1.17
2023-05-21T15:01:17.504Z,1.20
2023-05-21T15:03:44.453Z,1.55
2023-05-21T15:06:11.773Z,1.38
2023-05-21T15:08:38.503Z,1.27
2023-05-21T15:11:07.553Z,1.70
2023-05-21T15:13:34.331Z,1.40
2023-05-21T15:16:01.313Z,2.25
2023-05-21T15:18:29.268Z,1.15
2023-05-21T15:20:56.235Z,1.30
2023-05-21T15:23:22.977Z,1.42
2023-05-21T15:25:49.919Z,1.25
2023-05-21T15:28:16.931Z,1.55
2023-05-21T15:30:43.733Z,1.05
2023-05-21T15:33:11.580Z,1.45
2023-05-21T15:35:39.023Z,2.08
2023-05-21T15:38:06.220Z,1.70
2023-05-21T15:40:33.184Z,1.52
2023-05-21T15:43:00.019Z,1.10
2023-05-21T15:45:26.727Z,1.67
2023-05-21T15:47:53.653Z,1.35
2023-05-21T15:50:20.504Z,1.83
2023-05-21T15:52:47.373Z,1.08
2023-05-21T15:55:14.473Z,1.88
2023-05-21T15:57:41.352Z,1.20
2023-05-21T16:00:09.578Z,1.45
2023-05-21T16:02:36.922Z,2.08
2023-05-21T16:05:04.083Z,1.13
2023-05-21T16:07:30.974Z,1.90
2023-05-21T16:09:57.878Z,1.10
2023-05-21T16:12:24.818Z,1.42
2023-05-21T16:14:51.685Z,1.73
2023-05-21T16:17:21.637Z,1.85
2023-05-21T16:19:48.507Z,1.70
2023-05-21T16:22:15.518Z,1.95
2023-05-21T16:24:42.594Z,1.48
2023-05-21T16:27:09.451Z,1.55
2023-05-21T16:29:37.117Z,2.03
2023-05-21T16:32:05.905Z,1.40
2023-05-21T16:34:34.334Z,1.90
2023-05-21T16:37:01.124Z,2.25
2023-05-21T16:39:27.885Z,1.55
2023-05-21T16:41:59.439Z,1.85
2023-05-21T16:44:27.065Z,1.90
2023-05-21T16:46:54.295Z,1.90
2023-05-21T16:49:21.110Z,2.10
2023-05-21T16:51:47.964Z,1.38
2023-05-21T16:54:14.847Z,1.67
2023-05-21T16:56:41.599Z,1.65
2023-05-21T16:59:08.412Z,1.92
2023-05-21T17:01:35.380Z,2.17
2023-05-21T17:04:02.682Z,2.03
2023-05-21T17:06:29.548Z,2.25
2023-05-21T17:08:56.355Z,2.33
2023-05-21T17:11:23.154Z,2.22
2023-05-21T17:13:49.939Z,2.00
2023-05-21T17:16:16.755Z,1.52
2023-05-21T17:18:43.547Z,1.58
2023-05-21T17:21:10.496Z,2.20
2023-05-21T17:23:37.296Z,1.88
2023-05-21T17:26:06.902Z,2.22
2023-05-21T17:28:33.668Z,1.70
2023-05-21T17:31:01.638Z,1.70
2023-05-21T17:33:28.481Z,1.77
2023-05-21T17:35:56.936Z,1.65
2023-05-21T17:38:23.731Z,1.80
2023-05-21T17:40:50.690Z,1.08
2023-05-21T17:43:17.996Z,1.75
2023-05-21T17:45:44.750Z,2.17
2023-05-21T17:48:12.087Z,1.90
2023-05-21T17:50:39.006Z,1.88
2023-05-21T17:53:05.788Z,2.30
2023-05-21T17:55:32.524Z,1.77
2023-05-21T17:57:59.278Z,1.50
2023-05-21T18:00:26.024Z,2.10
2023-05-21T18:02:52.893Z,1.55
2023-05-21T18:05:19.932Z,1.48
2023-05-21T18:07:46.682Z,1.60
2023-05-21T18:10:15.406Z,1.90
2023-05-21T18:12:42.458Z,2.22
2023-05-21T18:15:09.758Z,1.45
2023-05-21T18:17:36.587Z,1.83
2023-05-21T18:20:04.537Z,1.60
2023-05-21T18:22:31.367Z,1.92
2023-05-21T18:24:58.179Z,1.42
2023-05-21T18:27:25.855Z,1.55
2023-05-21T18:29:52.959Z,1.83
2023-05-21T18:32:19.892Z,1.45
2023-05-21T18:34:48.259Z,1.58
2023-05-21T18:37:15.081Z,2.15
2023-05-21T18:39:41.887Z,1.98
2023-05-21T18:42:13.425Z,1.80
2023-05-21T18:44:41.212Z,1.98
2023-05-21T18:47:08.294Z,1.58
2023-05-21T18:49:35.938Z,2.00
2023-05-21T18:52:03.891Z,1.60
2023-05-21T18:54:31.105Z,1.48
2023-05-21T18:57:01.215Z,1.83
2023-05-21T18:59:29.097Z,1.42
2023-05-21T19:01:56.174Z,2.60
2023-05-21T19:04:23.397Z,1.38
2023-05-21T19:06:50.390Z,1.45
2023-05-21T19:09:17.465Z,1.23
2023-05-21T19:11:44.410Z,1.67
2023-05-21T19:14:11.533Z,1.55
2023-05-21T19:16:38.493Z,1.83
2023-05-21T19:19:06.069Z,1.52
2023-05-21T19:21:33.187Z,1.77
2023-05-21T19:24:00.199Z,2.38
2023-05-21T19:26:27.647Z,2.25
2023-05-21T19:28:55.368Z,1.20
2023-05-21T19:31:23.618Z,1.58
2023-05-21T19:33:51.263Z,1.40
2023-05-21T19:36:18.758Z,1.45
2023-05-21T19:38:48.107Z,1.50
2023-05-21T19:41:19.046Z,2.13
2023-05-21T19:43:46.366Z,1.42
2023-05-21T19:46:15.983Z,1.40
2023-05-21T19:48:45.305Z,1.50
2023-05-21T19:51:12.233Z,1.90
2023-05-21T19:53:39.098Z,2.15
2023-05-21T19:56:06.200Z,1.67
2023-05-21T19:58:33.306Z,2.05
2023-05-21T20:01:00.521Z,1.42
2023-05-21T20:03:28.616Z,1.35
2023-05-21T20:05:55.747Z,1.15
2023-05-21T20:08:23.150Z,2.08
2023-05-21T20:10:51.894Z,2.08
2023-05-21T20:13:19.727Z,2.97
2023-05-21T20:15:47.813Z,1.85
2023-05-21T20:18:15.369Z,2.17
2023-05-21T20:20:42.710Z,1.50
2023-05-21T20:23:09.438Z,2.38
2023-05-21T20:25:36.465Z,1.90
2023-05-21T20:28:04.386Z,2.22
2023-05-21T20:30:51.323Z,2.70
2023-05-21T20:33:18.501Z,1.67
2023-05-21T20:35:45.712Z,2.10
2023-05-21T20:38:12.753Z,1.75
2023-05-21T20:40:39.817Z,2.10
2023-05-21T20:43:07.204Z,1.63
2023-05-21T20:45:36.073Z,1.40
2023-05-21T20:48:03.458Z,2.55
2023-05-21T20:50:30.292Z,2.78
2023-05-21T20:52:58.742Z,4.07
2023-05-21T20:55:25.546Z,3.97
2023-05-21T20:57:52.503Z,2.97
2023-05-21T21:00:19.573Z,2.92
2023-05-21T21:02:46.498Z,2.45
2023-05-21T21:05:13.297Z,1.88
2023-05-21T21:07:40.244Z,2.00
2023-05-21T21:10:07.668Z,1.73
2023-05-21T21:12:34.500Z,2.90
2023-05-21T21:15:01.256Z,2.25
2023-05-21T21:17:28.115Z,2.75
2023-05-21T21:19:54.959Z,1.92
2023-05-21T21:22:21.817Z,2.47
2023-05-21T21:24:48.728Z,2.83
2023-05-21T21:27:15.465Z,2.22
2023-05-21T21:29:42.349Z,2.03
2023-05-21T21:32:09.291Z,2.42
2023-05-21T21:34:36.090Z,3.55
2023-05-21T21:37:02.989Z,2.60
2023-05-21T21:39:29.764Z,1.95
2023-05-21T21:41:56.616Z,2.38
2023-05-21T21:44:23.635Z,1.75
2023-05-21T21:46:50.603Z,2.42
2023-05-21T21:49:17.524Z,2.30
2023-05-21T21:51:44.944Z,2.30
2023-05-21T21:54:12.072Z,2.25
2023-05-21T21:56:38.913Z,2.58
2023-05-21T21:59:05.825Z,2.70
2023-05-21T22:01:33.141Z,2.45
2023-05-21T22:04:00.004Z,2.03
2023-05-21T22:06:27.720Z,2.55
2023-05-21T22:08:54.711Z,2.55
2023-05-21T22:11:21.848Z,2.83
2023-05-21T22:13:48.797Z,2.40
2023-05-21T22:16:15.566Z,1.95
2023-05-21T22:18:42.413Z,2.92
2023-05-21T22:21:10.417Z,2.90
2023-05-21T22:23:38.122Z,2.47
2023-05-21T22:26:05.091Z,2.22
2023-05-21T22:28:31.903Z,2.05
2023-05-21T22:30:59.078Z,2.30
2023-05-21T22:33:26.633Z,3.03
2023-05-21T22:35:54.164Z,2.17
2023-05-21T22:38:20.994Z,2.83
2023-05-21T22:40:47.860Z,3.03
2023-05-21T22:43:14.695Z,2.10
2023-05-21T22:45:41.372Z,3.28
2023-05-21T22:48:09.787Z,2.85
2023-05-21T22:50:38.535Z,2.40
2023-05-21T22:53:06.335Z,2.25
2023-05-21T22:55:33.223Z,2.58
2023-05-21T22:58:00.030Z,2.67
2023-05-21T23:00:27.166Z,2.10
2023-05-21T23:02:54.835Z,1.95
2023-05-21T23:05:22.289Z,2.35
2023-05-21T23:07:49.555Z,2.17
2023-05-21T23:10:16.488Z,2.28
2023-05-21T23:12:43.305Z,2.05
2023-05-21T23:15:10.945Z,2.55
2023-05-21T23:17:38.439Z,2.22
2023-05-21T23:20:07.328Z,2.00
2023-05-21T23:22:35.307Z,2.03
2023-05-21T23:25:02.583Z,2.20
2023-05-21T23:27:29.408Z,3.03
2023-05-21T23:29:56.259Z,2.63
2023-05-21T23:32:23.591Z,3.25
2023-05-21T23:34:50.697Z,2.65
2023-05-21T23:37:17.697Z,2.45
2023-05-21T23:39:48.118Z,2.50
2023-05-21T23:42:15.956Z,3.25
2023-05-21T23:44:42.779Z,2.40
2023-05-21T23:47:09.860Z,2.33
2023-05-21T23:49:36.658Z,2.55
2023-05-21T23:52:03.616Z,1.85
2023-05-21T23:54:30.643Z,3.00
2023-05-21T23:56:57.387Z,2.42
2023-05-21T23:59:24.155Z,2.50
